map of NTE home
NTE - Airport
Location
City:  Nantes, Pays de la Loire, France
Name:Atlantique
Old (Alt.):Château Bougon
ICAO:LFRS
IATA:NTE

Details
Type:Airport (Aerodrome, Airfield)
Use:Public/Civil
Latitude:47°09'25"N (47.156944)
Longitude:1°36'28"W (-1.607777)
Elevation:90 ft (27 m)
Variation:0.51°W (WMM2015 magnetic declination)
0.13° annual change
Runways:1
Longest:9514 × 148 ft (2900 × 45 m), paved

Time
Time Zone:UTC+1 (DST+2)
Local Time:

Weather
METAR:LFRS 150030Z AUTO 29011KT 9999 FEW031 SCT210 07/04 Q1001 NOSIG
TAF:LFRS 142300Z 1500/1606 27010KT 9999 SCT020 BKN030
TEMPO 1507/1509 28015G30KT 3000 SHRA SCT010 SCT030CB BKN040TCU
TEMPO 1511/1515 30015G25KT 5000 SHRA BKN040TCU

Related Locations
Nearby:
Farthest:CHT: 12095 mi / 19465 km
Waitangi [Tuuta], CIT, NZ

Find:

   beyond  
but within

Other Information
Maps:
NOTAMs:
Links:
Sources:

  
flag of France
flag of Pays de la Loire
  

Sectional Chart

Flight Planning
at skyvector.com

Satellite Image

Google Maps Satellite view

 

Copyright © 2004-2017 Karl L. Swartz. All rights reserved.
The Great Circle Mapper name and logo are trademarks of the Great Circle Mapper.
All other trademarks mentioned herein belong to their respective owners.
Please see credits for attibutions and further copyright information.

  Follow gcmap on Facebook Follow gcmap on Twitter Follow gcmap on Google+ GCmap on LinkedIn

hCard Microformat

Geo Microformat